createdAt,value
2018-12-10T00:01:05.666Z,6.05
2018-12-10T00:06:09.182Z,6.07
2018-12-10T00:11:12.375Z,6.01
2018-12-10T00:16:15.762Z,6.00
2018-12-10T00:21:18.946Z,5.86
2018-12-10T00:26:22.323Z,5.70
2018-12-10T00:31:25.594Z,5.60
2018-12-10T00:36:28.912Z,5.60
2018-12-10T00:41:32.371Z,5.56
2018-12-10T00:46:35.541Z,5.48
2018-12-10T00:51:38.994Z,5.37
2018-12-10T00:56:42.199Z,5.25
2018-12-10T01:01:45.459Z,5.17
2018-12-10T01:06:48.736Z,5.14
2018-12-10T01:11:51.865Z,5.20
2018-12-10T01:16:55.184Z,5.15
2018-12-10T01:21:58.567Z,5.09
2018-12-10T01:27:02.039Z,4.93
2018-12-10T01:32:05.651Z,4.87
2018-12-10T01:37:09.074Z,4.98
2018-12-10T01:42:12.441Z,4.91
2018-12-10T01:47:15.750Z,4.87
2018-12-10T01:52:19.040Z,4.94
2018-12-10T01:57:22.418Z,4.93
2018-12-10T02:02:25.617Z,4.79
2018-12-10T02:07:28.796Z,4.65
2018-12-10T02:12:32.136Z,4.61
2018-12-10T02:17:35.326Z,4.73
2018-12-10T02:22:38.573Z,4.67
2018-12-10T02:27:41.674Z,4.66
2018-12-10T02:32:44.908Z,4.72
2018-12-10T02:37:48.306Z,4.80
2018-12-10T02:42:51.650Z,4.78
2018-12-10T02:47:54.909Z,4.71
2018-12-10T02:52:58.269Z,4.55
2018-12-10T02:58:01.416Z,4.72
2018-12-10T03:03:04.673Z,4.88
2018-12-10T03:08:07.834Z,4.88
2018-12-10T03:13:11.095Z,5.03
2018-12-10T03:18:14.390Z,5.05
2018-12-10T03:23:17.697Z,5.12
2018-12-10T03:28:20.856Z,5.16
2018-12-10T03:33:23.995Z,5.18
2018-12-10T03:38:27.450Z,5.21
2018-12-10T03:43:30.617Z,5.22
2018-12-10T03:48:33.857Z,5.21
2018-12-10T03:53:37.056Z,5.18
2018-12-10T03:58:40.391Z,5.27
2018-12-10T04:03:43.533Z,5.21
2018-12-10T04:08:46.912Z,5.21
2018-12-10T04:13:50.301Z,5.19
2018-12-10T04:18:53.795Z,5.24
2018-12-10T04:23:57.325Z,5.18
2018-12-10T04:29:00.644Z,5.18
2018-12-10T04:34:03.902Z,5.21
2018-12-10T04:39:07.640Z,5.27
2018-12-10T04:44:10.869Z,5.22
2018-12-10T04:49:14.213Z,5.27
2018-12-10T04:54:17.515Z,5.23
2018-12-10T04:59:20.939Z,5.20
2018-12-10T05:04:24.089Z,5.20
2018-12-10T05:09:27.315Z,5.14
2018-12-10T05:14:30.540Z,5.09
2018-12-10T05:19:33.689Z,5.03
2018-12-10T05:24:36.842Z,4.97
2018-12-10T05:29:40.080Z,4.95
2018-12-10T05:34:43.416Z,4.94
2018-12-10T05:39:46.683Z,4.95
2018-12-10T05:44:49.917Z,4.95
2018-12-10T05:49:53.108Z,4.93
2018-12-10T05:54:57.176Z,4.90
2018-12-10T06:00:00.425Z,4.91
2018-12-10T06:05:04.636Z,4.88
2018-12-10T06:10:07.803Z,4.79
2018-12-10T06:15:10.967Z,4.78
2018-12-10T06:20:14.168Z,4.67
2018-12-10T06:25:17.290Z,4.53
2018-12-10T06:30:20.535Z,4.46
2018-12-10T06:35:23.789Z,4.61
2018-12-10T06:40:26.924Z,4.53
2018-12-10T06:45:30.089Z,4.51
2018-12-10T06:50:33.397Z,4.50
2018-12-10T06:55:36.544Z,4.40
2018-12-10T07:00:39.808Z,4.39
2018-12-10T07:05:43.220Z,4.41
2018-12-10T07:10:46.541Z,4.41
2018-12-10T07:15:49.729Z,4.43
2018-12-10T07:20:52.950Z,4.51
2018-12-10T07:25:56.357Z,4.42
2018-12-10T07:31:00.361Z,4.50
2018-12-10T07:36:04.133Z,4.51
2018-12-10T07:41:08.202Z,4.37
2018-12-10T07:46:11.509Z,4.41
2018-12-10T07:51:20.438Z,4.47
2018-12-10T07:56:28.951Z,4.59
2018-12-10T08:01:30.929Z,4.52
2018-12-10T08:06:34.232Z,4.56
2018-12-10T08:11:37.657Z,4.48
2018-12-10T08:16:41.757Z,4.65
2018-12-10T08:21:44.938Z,4.82
2018-12-10T08:26:53.714Z,4.72
2018-12-10T08:31:56.993Z,4.67
2018-12-10T08:37:00.635Z,4.54
2018-12-10T08:42:03.968Z,4.41
2018-12-10T08:47:07.531Z,4.32
2018-12-10T08:52:14.807Z,4.17
2018-12-10T08:57:18.181Z,4.12
2018-12-10T09:02:21.346Z,4.00
2018-12-10T09:07:24.716Z,4.21
2018-12-10T09:12:30.053Z,4.38
2018-12-10T09:17:33.574Z,4.56
2018-12-10T09:22:36.927Z,4.67
2018-12-10T09:27:40.184Z,4.83
2018-12-10T09:32:43.401Z,4.72
2018-12-10T09:37:46.594Z,4.88
2018-12-10T09:42:49.783Z,5.13
2018-12-10T09:47:53.362Z,5.02
2018-12-10T09:52:56.670Z,5.27
2018-12-10T09:57:59.864Z,5.16
2018-12-10T10:03:03.188Z,6.18
2018-12-10T10:08:06.596Z,6.57
2018-12-10T10:13:09.885Z,6.75
2018-12-10T10:18:13.242Z,6.36
2018-12-10T10:23:16.425Z,5.70
2018-12-10T10:28:20.169Z,5.32
2018-12-10T10:33:23.344Z,5.24
2018-12-10T10:38:26.612Z,5.54
2018-12-10T10:43:29.777Z,5.43
2018-12-10T10:48:33.106Z,5.43
2018-12-10T10:53:36.374Z,5.63
2018-12-10T10:58:39.917Z,5.98
2018-12-10T11:03:43.216Z,5.97
2018-12-10T11:08:46.425Z,5.95
2018-12-10T11:13:49.651Z,5.69
2018-12-10T11:18:53.066Z,5.64
2018-12-10T11:23:56.326Z,5.67
2018-12-10T11:28:59.654Z,5.95
2018-12-10T11:34:02.970Z,6.02
2018-12-10T11:39:07.232Z,5.98
2018-12-10T11:44:10.490Z,5.74
2018-12-10T11:49:13.679Z,5.88
2018-12-10T11:54:16.951Z,5.67
2018-12-10T11:59:20.171Z,5.64
2018-12-10T12:04:23.576Z,5.58
2018-12-10T12:09:26.859Z,5.66
2018-12-10T12:14:30.353Z,5.61
2018-12-10T12:19:34.119Z,5.70
2018-12-10T12:24:37.524Z,5.57
2018-12-10T12:29:41.570Z,5.45
2018-12-10T12:34:48.029Z,5.36
2018-12-10T12:39:51.506Z,5.46
2018-12-10T12:44:54.711Z,5.45
2018-12-10T12:49:57.968Z,5.35
2018-12-10T12:55:01.357Z,5.28
2018-12-10T13:00:05.736Z,5.24
2018-12-10T13:05:09.073Z,5.25
2018-12-10T13:10:12.525Z,5.29
2018-12-10T13:15:15.928Z,5.30
2018-12-10T13:20:19.280Z,5.27
2018-12-10T13:25:22.570Z,5.33
2018-12-10T13:30:26.043Z,5.41
2018-12-10T13:35:29.428Z,5.34
2018-12-10T13:40:32.695Z,5.36
2018-12-10T13:45:36.078Z,5.29
2018-12-10T13:50:39.479Z,5.31
2018-12-10T13:55:42.710Z,5.24
2018-12-10T14:00:50.884Z,5.25
2018-12-10T14:05:51.558Z,5.15
2018-12-10T14:10:55.721Z,5.07
2018-12-10T14:15:59.988Z,5.01
2018-12-10T14:21:05.382Z,4.98
2018-12-10T14:26:08.762Z,4.93
2018-12-10T14:31:12.062Z,4.86
2018-12-10T14:36:15.771Z,4.72
2018-12-10T14:41:19.123Z,4.73
2018-12-10T14:46:23.193Z,4.70
2018-12-10T14:51:26.315Z,4.66
2018-12-10T14:56:30.007Z,4.61
2018-12-10T15:01:33.286Z,4.60
2018-12-10T15:06:37.382Z,4.64
2018-12-10T15:11:40.522Z,4.71
2018-12-10T15:16:43.689Z,4.67
2018-12-10T15:21:47.158Z,4.72
2018-12-10T15:26:51.340Z,4.79
2018-12-10T15:31:54.634Z,4.78
2018-12-10T15:36:58.818Z,4.67
2018-12-10T15:42:02.026Z,4.58
2018-12-10T15:47:05.277Z,4.48
2018-12-10T15:52:08.661Z,4.38
2018-12-10T15:57:12.094Z,4.24
2018-12-10T16:02:16.229Z,4.12
2018-12-10T16:07:19.548Z,4.20
2018-12-10T16:12:22.717Z,3.79
2018-12-10T16:17:26.573Z,3.55
2018-12-10T16:22:29.723Z,3.46
2018-12-10T16:27:33.284Z,3.35
2018-12-10T16:32:36.563Z,3.46
2018-12-10T16:37:39.794Z,3.52
2018-12-10T16:42:43.360Z,3.53
2018-12-10T16:47:47.145Z,3.46
2018-12-10T16:52:50.458Z,3.55
2018-12-10T16:57:59.284Z,3.61
2018-12-10T17:03:03.170Z,3.71
2018-12-10T17:08:12.166Z,3.80
2018-12-10T17:13:15.549Z,3.81
2018-12-10T17:18:24.318Z,3.80
2018-12-10T17:23:27.576Z,3.82
2018-12-10T17:28:36.572Z,3.80
2018-12-10T17:33:39.858Z,3.82
2018-12-10T17:38:48.669Z,3.78
2018-12-10T17:43:52.032Z,3.81
2018-12-10T17:49:00.867Z,3.75
2018-12-10T17:54:06.956Z,3.76
2018-12-10T17:59:10.194Z,3.86
2018-12-10T18:04:13.471Z,3.91
2018-12-10T18:09:16.613Z,3.88
2018-12-10T18:14:19.847Z,3.86
2018-12-10T18:19:23.168Z,3.91
2018-12-10T18:24:26.728Z,3.98
2018-12-10T18:29:31.082Z,3.94
2018-12-10T18:34:34.372Z,3.85
2018-12-10T18:39:42.934Z,3.84
2018-12-10T18:44:47.400Z,3.83
2018-12-10T18:49:50.710Z,3.85
2018-12-10T18:54:53.879Z,3.80
2018-12-10T18:59:57.143Z,3.82
2018-12-10T19:05:00.448Z,3.78
2018-12-10T19:10:04.419Z,3.81
2018-12-10T19:15:09.223Z,3.78
2018-12-10T19:20:13.720Z,3.78
2018-12-10T19:25:17.165Z,3.82
2018-12-10T19:30:20.952Z,3.80
2018-12-10T19:35:25.007Z,3.88
2018-12-10T19:40:28.589Z,3.79
2018-12-10T19:45:31.988Z,3.75
2018-12-10T19:50:35.315Z,3.73
2018-12-10T19:55:38.678Z,3.71
2018-12-10T20:00:42.109Z,3.75
2018-12-10T20:05:45.568Z,3.71
2018-12-10T20:10:51.482Z,3.77
2018-12-10T20:15:58.078Z,3.79
2018-12-10T20:21:03.492Z,3.90
2018-12-10T20:26:06.991Z,3.90
2018-12-10T20:31:10.344Z,3.73
2018-12-10T20:36:13.543Z,3.62
2018-12-10T20:41:16.704Z,3.64
2018-12-10T20:46:22.101Z,3.64
2018-12-10T20:51:25.279Z,3.57
2018-12-10T20:56:28.448Z,3.62
2018-12-10T21:01:31.730Z,3.73
2018-12-10T21:06:35.006Z,3.79
2018-12-10T21:11:41.343Z,3.79
2018-12-10T21:16:47.556Z,3.74
2018-12-10T21:21:54.574Z,3.66
2018-12-10T21:27:02.152Z,3.67
2018-12-10T21:32:05.718Z,3.68
2018-12-10T21:37:09.055Z,3.67
2018-12-10T21:42:12.334Z,3.69
2018-12-10T21:47:15.852Z,3.73
2018-12-10T21:52:19.023Z,3.75
2018-12-10T21:57:22.284Z,3.77
2018-12-10T22:02:29.740Z,3.75
2018-12-10T22:07:36.843Z,3.77
2018-12-10T22:12:43.832Z,3.72
2018-12-10T22:17:50.242Z,3.72
2018-12-10T22:22:56.029Z,3.61
2018-12-10T22:28:02.058Z,3.50
2018-12-10T22:33:05.396Z,3.40
2018-12-10T22:38:08.615Z,3.42
2018-12-10T22:43:11.837Z,3.43
2018-12-10T22:48:14.967Z,3.50
2018-12-10T22:53:18.116Z,3.67
2018-12-10T22:58:21.343Z,3.74
2018-12-10T23:03:24.499Z,3.80
2018-12-10T23:08:27.668Z,3.94
2018-12-10T23:13:30.971Z,4.00
2018-12-10T23:18:34.130Z,4.06
2018-12-10T23:23:37.338Z,4.15
2018-12-10T23:28:40.526Z,4.09
2018-12-10T23:33:43.727Z,4.11
2018-12-10T23:38:46.980Z,4.08
2018-12-10T23:43:50.201Z,4.08
2018-12-10T23:48:53.396Z,4.01
2018-12-10T23:53:56.590Z,4.19
2018-12-10T23:58:59.917Z,4.18
